Roche, United Kingdom
Current Conditions -  °F | °C
As of 12:20 PM on Wednesday 28 Jan 2015 (Local Time) from EGHQ Reporting Station
Rain Showers Rain Showers  
Wind Chill:   Ceiling: Unl
Heat Index:   Visibility: 5mi
Dew Point:   Wind: 28mph
Humidity: 81%   Direction: 310°NW
Pressure: 29.8"   Gusts: 43mph
Location:  50.41°N, 4.83°W
Report Text: EGHQ 281220Z 31024G37KT 8000 -SHRA SCT022 06/03 Q1009
Loading
Personal Weather Stations






























Interactive Weather Map New forecast layout! Learn more

10-Day Weather Forecast

Advertisements
Track Severe Weather on mobile